createdAt,value
2018-09-18T00:00:54.679Z,14.40
2018-09-18T00:03:22.949Z,14.30
2018-09-18T00:05:51.193Z,14.30
2018-09-18T00:08:19.465Z,14.30
2018-09-18T00:10:47.841Z,14.20
2018-09-18T00:13:16.171Z,14.20
2018-09-18T00:15:44.433Z,14.20
2018-09-18T00:18:12.705Z,14.10
2018-09-18T00:20:41.004Z,14.10
2018-09-18T00:23:09.268Z,14.10
2018-09-18T00:25:38.018Z,14.10
2018-09-18T00:28:06.553Z,14.10
2018-09-18T00:30:34.804Z,14.00
2018-09-18T00:33:03.077Z,14.00
2018-09-18T00:35:31.355Z,13.90
2018-09-18T00:37:59.668Z,13.90
2018-09-18T00:40:27.950Z,13.80
2018-09-18T00:42:56.238Z,13.80
2018-09-18T00:45:24.552Z,13.80
2018-09-18T00:47:52.821Z,13.80
2018-09-18T00:50:21.155Z,13.80
2018-09-18T00:52:49.457Z,13.80
2018-09-18T00:55:17.746Z,13.80
2018-09-18T00:57:45.998Z,13.80
2018-09-18T01:00:14.267Z,13.90
2018-09-18T01:02:42.608Z,13.80
2018-09-18T01:05:10.895Z,13.80
2018-09-18T01:07:39.186Z,13.70
2018-09-18T01:10:07.578Z,13.80
2018-09-18T01:12:35.858Z,13.70
2018-09-18T01:15:04.273Z,13.70
2018-09-18T01:17:32.518Z,13.70
2018-09-18T01:20:00.892Z,13.60
2018-09-18T01:22:29.169Z,13.60
2018-09-18T01:24:57.471Z,13.60
2018-09-18T01:27:25.734Z,13.50
2018-09-18T01:29:54.011Z,13.40
2018-09-18T01:32:22.258Z,13.30
2018-09-18T01:34:56.521Z,13.30
2018-09-18T01:37:24.999Z,13.20
2018-09-18T01:39:53.290Z,13.20
2018-09-18T01:42:21.541Z,13.20
2018-09-18T01:44:49.826Z,13.20
2018-09-18T01:47:18.092Z,13.20
2018-09-18T01:49:46.417Z,13.10
2018-09-18T01:52:14.666Z,13.00
2018-09-18T01:54:42.926Z,13.00
2018-09-18T01:57:11.314Z,13.00
2018-09-18T01:59:39.608Z,13.00
2018-09-18T02:02:07.874Z,13.00
2018-09-18T02:04:36.255Z,13.00
2018-09-18T02:07:04.560Z,12.90
2018-09-18T02:09:32.842Z,12.90
2018-09-18T02:12:01.290Z,12.80
2018-09-18T02:14:29.574Z,12.80
2018-09-18T02:16:57.845Z,12.80
2018-09-18T02:19:26.107Z,12.80
2018-09-18T02:21:54.365Z,12.70
2018-09-18T02:24:22.678Z,12.70
2018-09-18T02:26:50.914Z,12.70
2018-09-18T02:29:19.192Z,12.70
2018-09-18T02:31:47.449Z,12.70
2018-09-18T02:34:15.723Z,12.80
2018-09-18T02:36:43.977Z,12.80
2018-09-18T02:39:13.182Z,12.70
2018-09-18T02:41:42.259Z,12.70
2018-09-18T02:44:10.552Z,12.60
2018-09-18T02:46:38.925Z,12.70
2018-09-18T02:49:07.399Z,12.60
2018-09-18T02:51:35.642Z,12.50
2018-09-18T02:54:03.941Z,12.50
2018-09-18T02:56:32.188Z,12.40
2018-09-18T02:59:00.470Z,12.40
2018-09-18T03:01:28.791Z,12.40
2018-09-18T03:03:57.167Z,12.40
2018-09-18T03:06:25.558Z,12.40
2018-09-18T03:08:53.835Z,12.50
2018-09-18T03:11:22.177Z,12.40
2018-09-18T03:13:50.410Z,12.40
2018-09-18T03:16:18.763Z,12.30
2018-09-18T03:18:47.082Z,12.20
2018-09-18T03:21:15.350Z,12.20
2018-09-18T03:23:43.605Z,12.10
2018-09-18T03:26:11.889Z,12.10
2018-09-18T03:28:40.247Z,12.00
2018-09-18T03:31:08.509Z,12.10
2018-09-18T03:33:36.759Z,12.10
2018-09-18T03:36:05.076Z,12.20
2018-09-18T03:38:33.324Z,12.30
2018-09-18T03:41:01.606Z,12.30
2018-09-18T03:43:30.018Z,12.20
2018-09-18T03:45:58.303Z,12.30
2018-09-18T03:48:26.595Z,12.30
2018-09-18T03:50:54.917Z,12.30
2018-09-18T03:53:23.176Z,12.20
2018-09-18T03:55:51.504Z,12.20
2018-09-18T03:58:19.752Z,12.10
2018-09-18T04:00:48.229Z,12.20
2018-09-18T04:03:16.474Z,12.20
2018-09-18T04:05:44.823Z,12.30
2018-09-18T04:08:13.079Z,12.20
2018-09-18T04:10:41.441Z,12.10
2018-09-18T04:13:10.049Z,12.10
2018-09-18T04:15:38.569Z,12.10
2018-09-18T04:18:06.927Z,12.10
2018-09-18T04:20:35.306Z,12.00
2018-09-18T04:23:03.551Z,11.90
2018-09-18T04:25:31.825Z,11.80
2018-09-18T04:28:00.079Z,11.80
2018-09-18T04:30:28.374Z,11.70
2018-09-18T04:32:56.602Z,11.70
2018-09-18T04:35:24.986Z,11.70
2018-09-18T04:37:53.230Z,11.70
2018-09-18T04:40:21.526Z,11.60
2018-09-18T04:42:49.804Z,11.60
2018-09-18T04:45:18.167Z,11.60
2018-09-18T04:47:46.407Z,11.50
2018-09-18T04:50:14.666Z,11.60
2018-09-18T04:52:43.014Z,11.50
2018-09-18T04:55:11.382Z,11.50
2018-09-18T04:57:39.736Z,11.50
2018-09-18T05:00:08.687Z,11.50
2018-09-18T05:02:37.256Z,11.50
2018-09-18T05:05:05.930Z,11.50
2018-09-18T05:07:34.329Z,11.50
2018-09-18T05:10:02.818Z,11.50
2018-09-18T05:12:31.096Z,11.60
2018-09-18T05:14:59.381Z,11.60
2018-09-18T05:17:27.694Z,11.70
2018-09-18T05:19:55.957Z,11.80
2018-09-18T05:22:24.289Z,11.80
2018-09-18T05:24:53.282Z,11.90
2018-09-18T05:27:21.673Z,11.90
2018-09-18T05:29:50.042Z,11.80
2018-09-18T05:32:18.295Z,11.80
2018-09-18T05:34:47.004Z,11.80
2018-09-18T05:37:15.358Z,11.80
2018-09-18T05:39:43.613Z,11.80
2018-09-18T05:42:11.900Z,11.90
2018-09-18T05:44:40.185Z,12.00
2018-09-18T05:47:09.158Z,12.20
2018-09-18T05:49:38.333Z,12.50
2018-09-18T05:52:06.813Z,12.70
2018-09-18T05:54:35.176Z,12.80
2018-09-18T05:57:03.518Z,13.00
2018-09-18T05:59:31.806Z,13.20
2018-09-18T06:02:00.094Z,13.50
2018-09-18T06:04:28.335Z,13.50
2018-09-18T06:06:56.591Z,13.60
2018-09-18T06:09:24.897Z,13.80
2018-09-18T06:12:00.125Z,14.00
2018-09-18T06:14:28.412Z,14.20
2018-09-18T06:16:56.734Z,14.40
2018-09-18T06:19:24.976Z,14.70
2018-09-18T06:21:53.242Z,15.20
2018-09-18T06:24:21.548Z,16.10
2018-09-18T06:26:49.803Z,16.80
2018-09-18T06:29:18.078Z,17.30
2018-09-18T06:31:46.358Z,17.50
2018-09-18T06:34:14.674Z,17.60
2018-09-18T06:36:42.942Z,17.70
2018-09-18T06:39:11.969Z,18.00
2018-09-18T06:41:40.627Z,18.30
2018-09-18T06:44:08.908Z,18.60
2018-09-18T06:46:37.354Z,18.60
2018-09-18T06:49:05.743Z,18.30
2018-09-18T06:51:35.016Z,18.00
2018-09-18T06:54:03.358Z,17.70
2018-09-18T06:56:31.737Z,17.50
2018-09-18T06:58:59.990Z,17.60
2018-09-18T07:01:28.285Z,17.70
2018-09-18T07:03:56.674Z,17.80
2018-09-18T07:06:24.910Z,18.00
2018-09-18T07:08:53.232Z,18.00
2018-09-18T07:11:21.710Z,18.10
2018-09-18T07:13:50.110Z,18.30
2018-09-18T07:16:18.397Z,18.50
2018-09-18T07:18:46.745Z,18.50
2018-09-18T07:21:15.115Z,18.70
2018-09-18T07:23:43.382Z,18.90
2018-09-18T07:26:11.630Z,19.10
2018-09-18T07:28:39.931Z,19.30
2018-09-18T07:31:08.235Z,19.50
2018-09-18T07:33:36.781Z,19.60
2018-09-18T07:36:05.139Z,19.70
2018-09-18T07:38:33.475Z,19.80
2018-09-18T07:41:02.077Z,20.10
2018-09-18T07:43:30.361Z,20.30
2018-09-18T07:45:58.662Z,20.60
2018-09-18T07:48:31.147Z,20.70
2018-09-18T07:50:59.422Z,20.80
2018-09-18T07:53:27.702Z,21.00
2018-09-18T07:55:55.956Z,21.20
2018-09-18T07:58:24.223Z,21.40
2018-09-18T08:00:52.525Z,21.60
2018-09-18T08:03:20.918Z,21.80
2018-09-18T08:05:49.121Z,21.90
2018-09-18T08:08:17.634Z,22.20
2018-09-18T08:10:45.967Z,22.30
2018-09-18T08:13:14.299Z,22.30
2018-09-18T08:15:42.855Z,22.40
2018-09-18T08:18:11.187Z,22.40
2018-09-18T08:20:39.453Z,22.50
2018-09-18T08:23:07.798Z,22.40
2018-09-18T08:25:36.089Z,22.60
2018-09-18T08:28:04.348Z,22.90
2018-09-18T08:30:32.620Z,23.00
2018-09-18T08:33:00.912Z,23.40
2018-09-18T08:35:29.171Z,23.60
2018-09-18T08:37:57.780Z,23.50
2018-09-18T08:40:26.072Z,23.80
2018-09-18T08:42:54.461Z,24.00
2018-09-18T08:45:22.781Z,24.10
2018-09-18T08:47:51.050Z,23.80
2018-09-18T08:50:19.306Z,23.70
2018-09-18T08:52:47.592Z,23.80
2018-09-18T08:55:15.895Z,24.10
2018-09-18T08:57:44.162Z,24.30
2018-09-18T09:00:12.474Z,24.70
2018-09-18T09:02:40.746Z,25.20
2018-09-18T09:05:09.073Z,25.50
2018-09-18T09:07:37.377Z,25.80
2018-09-18T09:10:05.765Z,26.40
2018-09-18T09:12:34.182Z,27.00
2018-09-18T09:15:02.500Z,27.70
2018-09-18T09:17:30.717Z,28.30
2018-09-18T09:19:58.974Z,28.10
2018-09-18T09:22:27.235Z,29.90
2018-09-18T09:24:55.518Z,30.90
2018-09-18T09:27:23.830Z,31.90
2018-09-18T09:29:52.193Z,32.50
2018-09-18T09:32:20.443Z,34.20
2018-09-18T09:34:48.665Z,35.20
2018-09-18T09:37:17.050Z,35.10
2018-09-18T09:39:45.254Z,33.80
2018-09-18T09:42:13.541Z,33.60
2018-09-18T09:44:41.874Z,33.10
2018-09-18T09:47:10.105Z,33.60
2018-09-18T09:49:38.433Z,33.10
2018-09-18T09:52:06.742Z,31.10
2018-09-18T09:54:35.050Z,29.10
2018-09-18T09:57:03.366Z,28.10
2018-09-18T09:59:31.667Z,27.20
2018-09-18T10:02:05.259Z,26.50
2018-09-18T10:04:33.579Z,26.10
2018-09-18T10:07:01.901Z,25.80
2018-09-18T10:09:30.183Z,25.50
2018-09-18T10:11:58.560Z,25.20
2018-09-18T10:14:26.895Z,25.10
2018-09-18T10:16:55.119Z,25.10
2018-09-18T10:19:23.414Z,25.00
2018-09-18T10:21:51.976Z,25.00
2018-09-18T10:24:20.315Z,25.00
2018-09-18T10:26:48.697Z,25.00
2018-09-18T10:29:17.020Z,25.00
2018-09-18T10:31:45.340Z,25.10
2018-09-18T10:34:13.613Z,25.10
2018-09-18T10:36:41.898Z,25.20
2018-09-18T10:39:11.279Z,25.20
2018-09-18T10:41:39.633Z,25.30
2018-09-18T10:44:07.894Z,25.40
2018-09-18T10:46:36.711Z,25.40
2018-09-18T10:49:05.091Z,25.50
2018-09-18T10:51:34.527Z,25.60
2018-09-18T10:54:02.804Z,25.50
2018-09-18T10:56:31.113Z,25.50
2018-09-18T10:58:59.414Z,25.60
2018-09-18T11:01:27.682Z,25.50
2018-09-18T11:03:55.969Z,25.60
2018-09-18T11:06:24.233Z,25.60
2018-09-18T11:08:52.631Z,25.70
2018-09-18T11:11:21.000Z,25.60
2018-09-18T11:13:49.274Z,25.60
2018-09-18T11:16:17.523Z,25.60
2018-09-18T11:18:45.828Z,25.60
2018-09-18T11:21:14.121Z,25.70
2018-09-18T11:23:42.464Z,25.70
2018-09-18T11:26:10.780Z,25.70
2018-09-18T11:28:39.073Z,25.80
2018-09-18T11:31:07.334Z,25.80
2018-09-18T11:33:35.714Z,25.90
2018-09-18T11:36:03.993Z,25.90
2018-09-18T11:38:32.295Z,26.00
2018-09-18T11:41:00.645Z,26.00
2018-09-18T11:43:28.886Z,26.10
2018-09-18T11:45:57.358Z,26.10
2018-09-18T11:48:25.423Z,26.00
2018-09-18T11:50:53.705Z,26.10
2018-09-18T11:53:22.033Z,26.30
2018-09-18T11:55:50.312Z,26.30
2018-09-18T11:58:18.637Z,26.40
2018-09-18T12:00:46.895Z,26.40
2018-09-18T12:03:15.268Z,26.40
2018-09-18T12:05:43.525Z,26.40
2018-09-18T12:08:11.794Z,26.50
2018-09-18T12:10:40.074Z,26.50
2018-09-18T12:13:08.456Z,26.60
2018-09-18T12:15:36.725Z,26.70
2018-09-18T12:18:04.976Z,26.70
2018-09-18T12:20:33.238Z,26.70
2018-09-18T12:23:01.508Z,26.60
2018-09-18T12:25:29.804Z,26.60
2018-09-18T12:27:58.048Z,26.70
2018-09-18T12:30:26.338Z,26.70
2018-09-18T12:32:54.675Z,26.80
2018-09-18T12:35:23.008Z,26.80
2018-09-18T12:37:51.243Z,26.80
2018-09-18T12:40:19.522Z,26.90
2018-09-18T12:42:47.844Z,26.90
2018-09-18T12:45:16.079Z,26.90
2018-09-18T12:47:44.337Z,27.00
2018-09-18T12:50:12.909Z,27.10
2018-09-18T12:52:40.893Z,27.10
2018-09-18T12:55:09.203Z,27.20
2018-09-18T12:57:37.679Z,27.20
2018-09-18T13:00:06.225Z,27.20
2018-09-18T13:02:34.620Z,27.30
2018-09-18T13:05:02.924Z,27.40
2018-09-18T13:07:31.210Z,27.40
2018-09-18T13:09:59.486Z,27.40
2018-09-18T13:12:27.769Z,27.40
2018-09-18T13:14:56.030Z,27.30
2018-09-18T13:17:24.292Z,27.30
2018-09-18T13:19:52.564Z,27.30
2018-09-18T13:22:20.817Z,27.30
2018-09-18T13:24:49.070Z,27.40
2018-09-18T13:27:17.338Z,27.40
2018-09-18T13:29:45.675Z,27.50
2018-09-18T13:32:13.947Z,27.60
2018-09-18T13:34:42.255Z,27.60
2018-09-18T13:37:10.605Z,27.60
2018-09-18T13:39:38.874Z,27.60
2018-09-18T13:42:07.138Z,27.60
2018-09-18T13:44:35.386Z,27.60
2018-09-18T13:47:03.645Z,27.60
2018-09-18T13:49:31.924Z,27.60
2018-09-18T13:52:00.324Z,27.60
2018-09-18T13:54:28.544Z,27.70
2018-09-18T13:56:56.826Z,27.70
2018-09-18T13:59:25.104Z,27.60
2018-09-18T14:01:53.421Z,27.60
2018-09-18T14:04:21.841Z,27.50
2018-09-18T14:06:50.144Z,27.50
2018-09-18T14:09:18.485Z,27.30
2018-09-18T14:11:46.799Z,27.30
2018-09-18T14:14:15.122Z,27.30
2018-09-18T14:16:43.365Z,27.40
2018-09-18T14:19:11.653Z,27.50
2018-09-18T14:21:39.939Z,27.50
2018-09-18T14:24:08.259Z,27.60
2018-09-18T14:26:36.592Z,27.70
2018-09-18T14:29:04.806Z,27.80
2018-09-18T14:31:33.101Z,27.90
2018-09-18T14:34:01.339Z,27.90
2018-09-18T14:36:29.623Z,27.90
2018-09-18T14:38:57.878Z,27.80
2018-09-18T14:41:26.210Z,27.90
2018-09-18T14:43:54.524Z,27.90
2018-09-18T14:46:22.819Z,28.00
2018-09-18T14:48:51.173Z,28.00
2018-09-18T14:51:19.544Z,28.00
2018-09-18T14:53:47.730Z,28.00
2018-09-18T14:56:16.045Z,28.10
2018-09-18T14:58:44.320Z,28.10
2018-09-18T15:01:12.606Z,28.10
2018-09-18T15:03:40.875Z,28.20
2018-09-18T15:06:09.167Z,28.30
2018-09-18T15:08:37.417Z,28.30
2018-09-18T15:11:05.714Z,28.40
2018-09-18T15:13:33.998Z,28.40
2018-09-18T15:16:02.320Z,28.50
2018-09-18T15:18:30.698Z,28.50
2018-09-18T15:20:59.075Z,28.60
2018-09-18T15:23:27.333Z,28.60
2018-09-18T15:25:55.582Z,28.60
2018-09-18T15:28:23.842Z,28.60
2018-09-18T15:30:52.190Z,28.60
2018-09-18T15:33:20.482Z,28.60
2018-09-18T15:35:48.726Z,28.60
2018-09-18T15:38:16.987Z,28.50
2018-09-18T15:40:45.238Z,28.50
2018-09-18T15:43:13.541Z,28.40
2018-09-18T15:45:41.873Z,28.30
2018-09-18T15:48:10.119Z,28.30
2018-09-18T15:50:38.351Z,28.30
2018-09-18T15:53:06.643Z,28.30
2018-09-18T15:55:34.886Z,28.30
2018-09-18T15:58:03.162Z,28.20
2018-09-18T16:00:31.400Z,28.20
2018-09-18T16:02:59.658Z,28.10
2018-09-18T16:05:27.902Z,28.10
2018-09-18T16:07:56.246Z,28.10
2018-09-18T16:10:24.482Z,28.00
2018-09-18T16:12:52.800Z,27.90
2018-09-18T16:15:21.085Z,27.80
2018-09-18T16:17:49.326Z,27.80
2018-09-18T16:20:17.577Z,27.80
2018-09-18T16:22:45.864Z,27.80
2018-09-18T16:25:14.092Z,27.70
2018-09-18T16:27:42.361Z,27.70
2018-09-18T16:30:10.624Z,27.60
2018-09-18T16:32:38.958Z,27.60
2018-09-18T16:35:07.174Z,27.60
2018-09-18T16:37:35.442Z,27.50
2018-09-18T16:40:04.011Z,27.40
2018-09-18T16:42:32.395Z,27.40
2018-09-18T16:45:00.714Z,27.30
2018-09-18T16:47:28.974Z,27.10
2018-09-18T16:49:57.272Z,27.10
2018-09-18T16:52:25.534Z,27.00
2018-09-18T16:54:53.903Z,26.90
2018-09-18T16:57:22.103Z,26.90
2018-09-18T16:59:50.485Z,26.90
2018-09-18T17:02:18.839Z,26.80
2018-09-18T17:04:47.031Z,26.80
2018-09-18T17:07:15.283Z,26.80
2018-09-18T17:09:43.528Z,26.70
2018-09-18T17:12:11.785Z,26.70
2018-09-18T17:14:40.063Z,26.80
2018-09-18T17:17:08.303Z,26.80
2018-09-18T17:19:36.634Z,26.80
2018-09-18T17:22:04.878Z,26.80
2018-09-18T17:24:33.183Z,26.80
2018-09-18T17:27:01.392Z,26.80
2018-09-18T17:29:29.675Z,26.80
2018-09-18T17:31:57.947Z,26.80
2018-09-18T17:34:26.352Z,26.80
2018-09-18T17:36:54.542Z,26.80
2018-09-18T17:39:22.940Z,26.80
2018-09-18T17:41:51.296Z,26.60
2018-09-18T17:44:19.713Z,26.50
2018-09-18T17:46:47.974Z,26.40
2018-09-18T17:49:16.267Z,26.20
2018-09-18T17:51:44.600Z,25.90
2018-09-18T17:54:13.033Z,25.80
2018-09-18T17:56:41.358Z,25.60
2018-09-18T17:59:09.686Z,25.50
2018-09-18T18:01:37.982Z,25.30
2018-09-18T18:04:06.324Z,25.20
2018-09-18T18:06:34.621Z,25.10
2018-09-18T18:09:03.310Z,24.90
2018-09-18T18:11:31.615Z,24.80
2018-09-18T18:13:59.910Z,24.70
2018-09-18T18:16:28.185Z,24.60
2018-09-18T18:18:56.446Z,24.50
2018-09-18T18:21:24.766Z,24.40
2018-09-18T18:23:53.151Z,24.40
2018-09-18T18:26:21.452Z,24.30
2018-09-18T18:28:49.804Z,24.30
2018-09-18T18:31:18.104Z,24.30
2018-09-18T18:33:46.600Z,24.20
2018-09-18T18:36:14.842Z,24.10
2018-09-18T18:38:43.168Z,24.10
2018-09-18T18:41:11.439Z,24.00
2018-09-18T18:43:39.747Z,23.90
2018-09-18T18:46:08.004Z,23.80
2018-09-18T18:48:36.353Z,23.80
2018-09-18T18:51:04.580Z,23.70
2018-09-18T18:53:32.886Z,23.60
2018-09-18T18:56:01.194Z,23.50
2018-09-18T18:58:29.469Z,23.50
2018-09-18T19:00:57.732Z,23.40
2018-09-18T19:03:25.981Z,23.40
2018-09-18T19:05:54.222Z,23.30
2018-09-18T19:08:22.485Z,23.20
2018-09-18T19:10:50.854Z,23.10
2018-09-18T19:13:19.318Z,23.00
2018-09-18T19:15:48.057Z,22.90
2018-09-18T19:18:16.315Z,22.80
2018-09-18T19:20:44.612Z,22.80
2018-09-18T19:23:12.890Z,22.70
2018-09-18T19:25:41.375Z,22.70
2018-09-18T19:28:09.803Z,22.70
2018-09-18T19:30:38.073Z,22.70
2018-09-18T19:33:06.418Z,22.70
2018-09-18T19:35:34.627Z,22.70
2018-09-18T19:38:02.916Z,22.70
2018-09-18T19:40:31.282Z,22.80
2018-09-18T19:42:59.675Z,22.80
2018-09-18T19:45:28.051Z,22.70
2018-09-18T19:47:56.318Z,22.70
2018-09-18T19:50:24.722Z,22.60
2018-09-18T19:52:53.051Z,22.50
2018-09-18T19:55:21.374Z,22.40
2018-09-18T19:57:49.649Z,22.40
2018-09-18T20:00:18.014Z,22.40
2018-09-18T20:02:46.431Z,22.30
2018-09-18T20:05:14.880Z,22.00
2018-09-18T20:07:43.242Z,21.40
2018-09-18T20:10:11.521Z,20.90
2018-09-18T20:12:39.855Z,20.50
2018-09-18T20:15:08.295Z,20.10
2018-09-18T20:17:36.666Z,19.90
2018-09-18T20:20:04.934Z,19.70
2018-09-18T20:22:33.203Z,19.60
2018-09-18T20:25:01.527Z,19.60
2018-09-18T20:27:29.770Z,19.70
2018-09-18T20:29:58.065Z,19.80
2018-09-18T20:32:26.441Z,19.90
2018-09-18T20:34:54.773Z,20.00
2018-09-18T20:37:23.031Z,20.10
2018-09-18T20:39:51.316Z,20.20
2018-09-18T20:42:19.585Z,20.40
2018-09-18T20:44:47.953Z,20.50
2018-09-18T20:47:17.437Z,20.50
2018-09-18T20:49:45.724Z,20.50
2018-09-18T20:52:14.035Z,20.50
2018-09-18T20:54:42.346Z,20.40
2018-09-18T20:57:10.717Z,20.40
2018-09-18T20:59:39.017Z,20.40
2018-09-18T21:02:07.397Z,20.30
2018-09-18T21:04:35.792Z,20.30
2018-09-18T21:07:04.074Z,20.30
2018-09-18T21:09:32.721Z,20.30
2018-09-18T21:12:01.040Z,20.20
2018-09-18T21:14:29.463Z,20.20
2018-09-18T21:16:57.775Z,20.20
2018-09-18T21:19:26.097Z,20.10
2018-09-18T21:21:54.779Z,20.20
2018-09-18T21:24:23.134Z,20.30
2018-09-18T21:26:51.502Z,20.30
2018-09-18T21:29:20.055Z,20.30
2018-09-18T21:31:48.333Z,20.30
2018-09-18T21:34:16.667Z,20.30
2018-09-18T21:36:45.093Z,20.30
2018-09-18T21:39:13.558Z,20.20
2018-09-18T21:41:41.822Z,20.20
2018-09-18T21:44:10.164Z,20.10
2018-09-18T21:46:38.430Z,20.00
2018-09-18T21:49:06.850Z,20.00
2018-09-18T21:51:36.952Z,20.00
2018-09-18T21:54:05.249Z,20.00
2018-09-18T21:56:33.521Z,20.00
2018-09-18T21:59:01.816Z,20.00
2018-09-18T22:01:30.294Z,20.00
2018-09-18T22:03:58.568Z,20.00
2018-09-18T22:06:26.896Z,20.00
2018-09-18T22:08:55.266Z,19.90
2018-09-18T22:11:23.571Z,19.90
2018-09-18T22:13:51.850Z,19.90
2018-09-18T22:16:20.130Z,19.80
2018-09-18T22:18:48.442Z,19.80
2018-09-18T22:21:16.688Z,19.80
2018-09-18T22:23:44.959Z,19.80
2018-09-18T22:26:13.353Z,19.90
2018-09-18T22:28:41.614Z,19.80
2018-09-18T22:31:09.904Z,19.80
2018-09-18T22:33:38.280Z,19.80
2018-09-18T22:36:06.567Z,19.70
2018-09-18T22:38:34.852Z,19.70
2018-09-18T22:41:03.249Z,19.70
2018-09-18T22:43:31.571Z,19.70
2018-09-18T22:45:59.846Z,19.70
2018-09-18T22:48:28.129Z,19.70
2018-09-18T22:50:56.411Z,19.70
2018-09-18T22:53:24.698Z,19.70
2018-09-18T22:55:53.010Z,19.60
2018-09-18T22:58:21.281Z,19.60
2018-09-18T23:00:49.563Z,19.50
2018-09-18T23:03:17.928Z,19.50
2018-09-18T23:05:46.219Z,19.40
2018-09-18T23:08:14.499Z,19.30
2018-09-18T23:10:42.770Z,19.20
2018-09-18T23:13:11.049Z,19.20
2018-09-18T23:15:39.418Z,19.10
2018-09-18T23:18:07.926Z,19.10
2018-09-18T23:20:36.313Z,19.10
2018-09-18T23:23:04.561Z,19.10
2018-09-18T23:25:32.829Z,19.10
2018-09-18T23:28:01.135Z,19.00
2018-09-18T23:30:29.431Z,19.00
2018-09-18T23:32:57.772Z,19.00
2018-09-18T23:35:26.028Z,18.90
2018-09-18T23:37:54.319Z,18.90
2018-09-18T23:40:22.566Z,18.80
2018-09-18T23:42:50.876Z,18.70
2018-09-18T23:45:19.146Z,18.70
2018-09-18T23:47:47.465Z,18.60
2018-09-18T23:50:15.756Z,18.60
2018-09-18T23:52:44.034Z,18.50
2018-09-18T23:55:12.300Z,18.40
2018-09-18T23:57:40.579Z,18.40
